sensor_id;sensor_type;location;lat;lon;timestamp;pressure;altitude;pressure_sealevel;temperature;humidity
62059;BME280;48017;51.064;7.014;2022-08-21T00:01:03;101011.28;;;18.01;75.53
62059;BME280;48017;51.064;7.014;2022-08-21T00:03:31;101006.09;;;17.99;75.44
62059;BME280;48017;51.064;7.014;2022-08-21T00:05:56;101000.06;;;17.89;75.91
62059;BME280;48017;51.064;7.014;2022-08-21T00:08:22;100997.88;;;17.93;75.50
62059;BME280;48017;51.064;7.014;2022-08-21T00:10:48;100997.84;;;17.76;76.62
62059;BME280;48017;51.064;7.014;2022-08-21T00:13:14;100992.84;;;17.81;76.46
62059;BME280;48017;51.064;7.014;2022-08-21T00:15:40;100994.00;;;17.95;75.95
62059;BME280;48017;51.064;7.014;2022-08-21T00:18:07;100994.69;;;17.81;76.08
62059;BME280;48017;51.064;7.014;2022-08-21T00:20:34;100992.63;;;17.50;77.49
62059;BME280;48017;51.064;7.014;2022-08-21T00:23:00;100990.22;;;17.31;78.38
62059;BME280;48017;51.064;7.014;2022-08-21T00:25:25;100989.03;;;17.25;78.86
62059;BME280;48017;51.064;7.014;2022-08-21T00:27:51;100979.56;;;17.47;77.80
62059;BME280;48017;51.064;7.014;2022-08-21T00:30:18;100988.78;;;17.61;77.38
62059;BME280;48017;51.064;7.014;2022-08-21T00:32:44;100981.53;;;17.45;78.13
62059;BME280;48017;51.064;7.014;2022-08-21T00:35:13;100978.97;;;17.11;80.06
62059;BME280;48017;51.064;7.014;2022-08-21T00:37:40;100976.63;;;16.74;82.08
62059;BME280;48017;51.064;7.014;2022-08-21T00:40:08;100982.00;;;16.74;82.49
62059;BME280;48017;51.064;7.014;2022-08-21T00:42:34;100977.47;;;16.75;82.29
62059;BME280;48017;51.064;7.014;2022-08-21T00:45:00;100974.50;;;16.52;83.39
62059;BME280;48017;51.064;7.014;2022-08-21T00:47:27;100973.72;;;16.33;84.64
62059;BME280;48017;51.064;7.014;2022-08-21T00:49:52;100975.81;;;16.22;84.71
62059;BME280;48017;51.064;7.014;2022-08-21T00:52:22;100977.78;;;15.94;86.41
62059;BME280;48017;51.064;7.014;2022-08-21T00:54:50;100977.78;;;15.94;86.41
62059;BME280;48017;51.064;7.014;2022-08-21T00:57:24;100975.81;;;15.96;86.33
62059;BME280;48017;51.064;7.014;2022-08-21T00:59:53;100973.47;;;16.19;85.41
62059;BME280;48017;51.064;7.014;2022-08-21T01:02:19;100978.84;;;16.01;85.96
62059;BME280;48017;51.064;7.014;2022-08-21T01:04:45;100978.16;;;16.17;85.15
62059;BME280;48017;51.064;7.014;2022-08-21T01:07:11;100978.75;;;16.10;85.77
62059;BME280;48017;51.064;7.014;2022-08-21T01:09:38;100977.25;;;16.08;85.56
62059;BME280;48017;51.064;7.014;2022-08-21T01:12:04;100978.25;;;15.89;86.15
62059;BME280;48017;51.064;7.014;2022-08-21T01:14:29;100981.75;;;15.64;87.95
62059;BME280;48017;51.064;7.014;2022-08-21T01:16:56;100988.72;;;15.47;89.41
62059;BME280;48017;51.064;7.014;2022-08-21T01:19:23;100994.38;;;15.44;89.63
62059;BME280;48017;51.064;7.014;2022-08-21T01:21:49;100993.88;;;15.13;92.22
62059;BME280;48017;51.064;7.014;2022-08-21T01:24:15;100990.66;;;15.09;92.18
62059;BME280;48017;51.064;7.014;2022-08-21T01:26:41;100994.97;;;15.38;91.02
62059;BME280;48017;51.064;7.014;2022-08-21T01:29:13;100993.31;;;15.54;89.99
62059;BME280;48017;51.064;7.014;2022-08-21T01:31:40;100988.75;;;15.65;89.18
62059;BME280;48017;51.064;7.014;2022-08-21T01:34:06;100985.53;;;15.61;89.05
62059;BME280;48017;51.064;7.014;2022-08-21T01:36:32;100990.47;;;15.56;89.55
62059;BME280;48017;51.064;7.014;2022-08-21T01:38:59;100994.16;;;15.55;89.73
62059;BME280;48017;51.064;7.014;2022-08-21T01:41:24;100993.16;;;15.56;89.35
62059;BME280;48017;51.064;7.014;2022-08-21T01:43:50;100980.94;;;15.53;89.99
62059;BME280;48017;51.064;7.014;2022-08-21T01:46:16;100980.78;;;15.73;88.76
62059;BME280;48017;51.064;7.014;2022-08-21T01:48:42;100983.44;;;15.91;87.79
62059;BME280;48017;51.064;7.014;2022-08-21T01:51:08;100978.34;;;15.79;88.21
62059;BME280;48017;51.064;7.014;2022-08-21T01:53:35;100977.59;;;15.87;87.48
62059;BME280;48017;51.064;7.014;2022-08-21T01:56:04;100979.72;;;15.83;87.64
62059;BME280;48017;51.064;7.014;2022-08-21T01:58:30;100988.13;;;15.71;87.96
62059;BME280;48017;51.064;7.014;2022-08-21T02:00:55;100978.56;;;15.50;89.17
62059;BME280;48017;51.064;7.014;2022-08-21T02:03:21;100972.75;;;15.37;90.31
62059;BME280;48017;51.064;7.014;2022-08-21T02:05:46;100974.34;;;15.30;90.66
62059;BME280;48017;51.064;7.014;2022-08-21T02:08:11;100965.56;;;15.02;91.98
62059;BME280;48017;51.064;7.014;2022-08-21T02:10:38;100969.56;;;15.34;90.64
62059;BME280;48017;51.064;7.014;2022-08-21T02:13:03;100968.41;;;15.36;90.33
62059;BME280;48017;51.064;7.014;2022-08-21T02:15:30;100971.38;;;15.51;89.21
62059;BME280;48017;51.064;7.014;2022-08-21T02:18:00;100978.19;;;15.45;89.61
62059;BME280;48017;51.064;7.014;2022-08-21T02:20:30;100968.50;;;15.44;89.40
62059;BME280;48017;51.064;7.014;2022-08-21T02:22:56;100974.00;;;15.61;88.40
62059;BME280;48017;51.064;7.014;2022-08-21T02:25:23;100978.03;;;15.47;89.53
62059;BME280;48017;51.064;7.014;2022-08-21T02:27:49;100975.59;;;15.36;89.81
62059;BME280;48017;51.064;7.014;2022-08-21T02:30:18;100967.88;;;15.33;90.31
62059;BME280;48017;51.064;7.014;2022-08-21T02:32:43;100970.16;;;15.45;89.62
62059;BME280;48017;51.064;7.014;2022-08-21T02:35:10;100971.09;;;15.54;88.92
62059;BME280;48017;51.064;7.014;2022-08-21T02:40:12;100966.88;;;15.34;90.25
62059;BME280;48017;51.064;7.014;2022-08-21T02:42:37;100971.69;;;15.48;89.29
62059;BME280;48017;51.064;7.014;2022-08-21T02:45:05;100963.31;;;15.43;89.47
62059;BME280;48017;51.064;7.014;2022-08-21T02:47:31;100964.19;;;15.51;88.97
62059;BME280;48017;51.064;7.014;2022-08-21T02:49:57;100962.09;;;15.55;88.66
62059;BME280;48017;51.064;7.014;2022-08-21T02:52:22;100960.41;;;15.36;89.92
62059;BME280;48017;51.064;7.014;2022-08-21T02:54:49;100963.66;;;15.30;90.02
62059;BME280;48017;51.064;7.014;2022-08-21T02:57:15;100956.31;;;15.32;90.22
62059;BME280;48017;51.064;7.014;2022-08-21T02:59:40;100958.56;;;15.37;89.91
62059;BME280;48017;51.064;7.014;2022-08-21T03:02:06;100963.97;;;15.27;90.55
62059;BME280;48017;51.064;7.014;2022-08-21T03:04:31;100957.72;;;15.36;89.91
62059;BME280;48017;51.064;7.014;2022-08-21T03:06:57;100954.66;;;15.31;89.83
62059;BME280;48017;51.064;7.014;2022-08-21T03:09:23;100959.59;;;15.08;91.47
62059;BME280;48017;51.064;7.014;2022-08-21T03:11:50;100959.75;;;15.07;91.80
62059;BME280;48017;51.064;7.014;2022-08-21T03:14:16;100959.13;;;14.95;92.58
62059;BME280;48017;51.064;7.014;2022-08-21T03:16:42;100954.31;;;14.98;92.35
62059;BME280;48017;51.064;7.014;2022-08-21T03:19:07;100956.81;;;15.00;92.26
62059;BME280;48017;51.064;7.014;2022-08-21T03:21:33;100952.47;;;14.99;92.48
62059;BME280;48017;51.064;7.014;2022-08-21T03:23:58;100963.34;;;15.15;91.75
62059;BME280;48017;51.064;7.014;2022-08-21T03:26:24;100961.00;;;15.12;91.35
62059;BME280;48017;51.064;7.014;2022-08-21T03:28:49;100957.09;;;15.07;92.13
62059;BME280;48017;51.064;7.014;2022-08-21T03:31:16;100951.69;;;15.16;91.46
62059;BME280;48017;51.064;7.014;2022-08-21T03:33:43;100950.38;;;15.03;92.30
62059;BME280;48017;51.064;7.014;2022-08-21T03:36:09;100955.72;;;15.03;92.59
62059;BME280;48017;51.064;7.014;2022-08-21T03:38:36;100954.38;;;14.89;93.07
62059;BME280;48017;51.064;7.014;2022-08-21T03:41:03;100958.34;;;14.85;93.11
62059;BME280;48017;51.064;7.014;2022-08-21T03:43:29;100956.16;;;14.70;94.21
62059;BME280;48017;51.064;7.014;2022-08-21T03:45:55;100955.81;;;14.83;93.75
62059;BME280;48017;51.064;7.014;2022-08-21T03:48:20;100957.03;;;14.89;93.30
62059;BME280;48017;51.064;7.014;2022-08-21T03:50:46;100957.72;;;14.91;92.91
62059;BME280;48017;51.064;7.014;2022-08-21T03:53:13;100956.44;;;14.67;94.32
62059;BME280;48017;51.064;7.014;2022-08-21T03:55:39;100966.44;;;14.65;94.53
62059;BME280;48017;51.064;7.014;2022-08-21T03:58:04;100961.59;;;14.51;95.52
62059;BME280;48017;51.064;7.014;2022-08-21T04:00:30;100956.75;;;14.64;94.53
62059;BME280;48017;51.064;7.014;2022-08-21T04:02:55;100972.16;;;14.70;93.93
62059;BME280;48017;51.064;7.014;2022-08-21T04:05:21;100962.31;;;14.71;93.78
62059;BME280;48017;51.064;7.014;2022-08-21T04:08:03;100964.88;;;14.73;94.02
62059;BME280;48017;51.064;7.014;2022-08-21T04:10:31;100963.88;;;14.74;93.50
62059;BME280;48017;51.064;7.014;2022-08-21T04:12:58;100973.22;;;14.87;92.64
62059;BME280;48017;51.064;7.014;2022-08-21T04:15:24;100973.00;;;14.98;91.73
62059;BME280;48017;51.064;7.014;2022-08-21T04:17:50;100977.97;;;14.93;91.91
62059;BME280;48017;51.064;7.014;2022-08-21T04:20:17;100969.53;;;14.88;91.94
62059;BME280;48017;51.064;7.014;2022-08-21T04:22:43;100975.25;;;14.76;92.37
62059;BME280;48017;51.064;7.014;2022-08-21T04:25:10;100974.88;;;14.61;93.79
62059;BME280;48017;51.064;7.014;2022-08-21T04:27:35;100979.38;;;14.60;94.05
62059;BME280;48017;51.064;7.014;2022-08-21T04:30:01;100977.50;;;14.70;93.22
62059;BME280;48017;51.064;7.014;2022-08-21T04:32:26;100981.06;;;14.89;92.11
62059;BME280;48017;51.064;7.014;2022-08-21T04:35:04;100975.34;;;14.84;92.42
62059;BME280;48017;51.064;7.014;2022-08-21T04:37:30;100987.41;;;14.88;92.03
62059;BME280;48017;51.064;7.014;2022-08-21T04:39:55;100981.38;;;14.86;92.04
62059;BME280;48017;51.064;7.014;2022-08-21T04:42:26;100977.19;;;14.83;91.73
62059;BME280;48017;51.064;7.014;2022-08-21T04:44:52;100981.53;;;14.84;92.09
62059;BME280;48017;51.064;7.014;2022-08-21T04:47:18;100990.16;;;14.68;92.60
62059;BME280;48017;51.064;7.014;2022-08-21T04:49:44;100989.56;;;14.75;92.64
62059;BME280;48017;51.064;7.014;2022-08-21T04:52:11;100992.25;;;15.02;90.51
62059;BME280;48017;51.064;7.014;2022-08-21T04:54:38;100994.81;;;14.66;92.68
62059;BME280;48017;51.064;7.014;2022-08-21T04:57:06;100994.69;;;14.58;93.50
62059;BME280;48017;51.064;7.014;2022-08-21T04:59:40;101001.66;;;14.69;92.84
62059;BME280;48017;51.064;7.014;2022-08-21T05:02:08;100998.75;;;14.90;91.62
62059;BME280;48017;51.064;7.014;2022-08-21T05:04:37;100993.31;;;15.09;90.29
62059;BME280;48017;51.064;7.014;2022-08-21T05:07:06;101002.63;;;14.78;91.64
62059;BME280;48017;51.064;7.014;2022-08-21T05:09:33;101018.66;;;14.68;91.90
62059;BME280;48017;51.064;7.014;2022-08-21T05:12:01;101010.88;;;14.84;91.01
62059;BME280;48017;51.064;7.014;2022-08-21T05:14:27;101012.50;;;14.67;91.51
62059;BME280;48017;51.064;7.014;2022-08-21T05:16:53;101013.09;;;14.89;90.75
62059;BME280;48017;51.064;7.014;2022-08-21T05:19:18;101014.41;;;14.85;90.99
62059;BME280;48017;51.064;7.014;2022-08-21T05:21:45;101021.69;;;14.92;90.30
62059;BME280;48017;51.064;7.014;2022-08-21T05:24:10;101010.53;;;14.97;89.65
62059;BME280;48017;51.064;7.014;2022-08-21T05:26:36;101013.91;;;14.72;90.99
62059;BME280;48017;51.064;7.014;2022-08-21T05:29:03;101016.41;;;14.73;91.27
62059;BME280;48017;51.064;7.014;2022-08-21T05:31:29;101011.38;;;14.97;89.86
62059;BME280;48017;51.064;7.014;2022-08-21T05:33:55;101014.09;;;15.15;88.47
62059;BME280;48017;51.064;7.014;2022-08-21T05:36:21;101013.97;;;15.35;87.88
62059;BME280;48017;51.064;7.014;2022-08-21T05:38:46;101013.41;;;15.31;88.17
62059;BME280;48017;51.064;7.014;2022-08-21T05:41:11;101002.91;;;15.30;87.92
62059;BME280;48017;51.064;7.014;2022-08-21T05:43:37;101012.69;;;15.11;88.78
62059;BME280;48017;51.064;7.014;2022-08-21T05:46:04;101010.13;;;15.19;88.80
62059;BME280;48017;51.064;7.014;2022-08-21T05:48:30;101009.91;;;15.13;89.11
62059;BME280;48017;51.064;7.014;2022-08-21T05:50:56;101017.41;;;15.27;88.92
62059;BME280;48017;51.064;7.014;2022-08-21T05:53:23;101005.97;;;15.07;89.80
62059;BME280;48017;51.064;7.014;2022-08-21T05:55:49;101015.19;;;14.95;90.68
62059;BME280;48017;51.064;7.014;2022-08-21T05:58:19;101021.31;;;15.33;88.68
62059;BME280;48017;51.064;7.014;2022-08-21T06:00:46;101015.81;;;15.07;89.68
62059;BME280;48017;51.064;7.014;2022-08-21T06:03:18;101021.69;;;14.92;90.92
62059;BME280;48017;51.064;7.014;2022-08-21T06:05:45;101024.56;;;14.99;90.32
62059;BME280;48017;51.064;7.014;2022-08-21T06:08:10;101020.34;;;15.06;89.78
62059;BME280;48017;51.064;7.014;2022-08-21T06:10:36;101022.06;;;14.97;89.67
62059;BME280;48017;51.064;7.014;2022-08-21T06:13:01;101016.38;;;15.10;89.98
62059;BME280;48017;51.064;7.014;2022-08-21T06:15:27;101025.72;;;15.42;88.01
62059;BME280;48017;51.064;7.014;2022-08-21T06:17:53;101019.47;;;15.51;87.47
62059;BME280;48017;51.064;7.014;2022-08-21T06:20:19;101015.03;;;15.42;87.38
62059;BME280;48017;51.064;7.014;2022-08-21T06:22:44;101011.69;;;15.40;87.71
62059;BME280;48017;51.064;7.014;2022-08-21T06:25:10;101013.19;;;15.70;87.06
62059;BME280;48017;51.064;7.014;2022-08-21T06:27:35;101016.91;;;15.59;86.82
62059;BME280;48017;51.064;7.014;2022-08-21T06:30:02;101015.41;;;15.74;85.99
62059;BME280;48017;51.064;7.014;2022-08-21T06:32:27;101008.34;;;16.09;84.24
62059;BME280;48017;51.064;7.014;2022-08-21T06:34:53;101012.38;;;16.65;81.42
62059;BME280;48017;51.064;7.014;2022-08-21T06:37:18;101010.81;;;16.80;81.24
62059;BME280;48017;51.064;7.014;2022-08-21T06:39:43;101003.88;;;17.04;79.10
62059;BME280;48017;51.064;7.014;2022-08-21T06:42:16;101011.78;;;17.72;75.86
62059;BME280;48017;51.064;7.014;2022-08-21T06:44:42;101012.78;;;18.11;73.99
62059;BME280;48017;51.064;7.014;2022-08-21T06:47:08;101013.88;;;18.66;71.60
62059;BME280;48017;51.064;7.014;2022-08-21T06:49:34;101022.84;;;17.85;74.07
62059;BME280;48017;51.064;7.014;2022-08-21T06:52:00;101018.22;;;18.59;71.18
62059;BME280;48017;51.064;7.014;2022-08-21T06:54:26;101025.03;;;18.30;72.56
62059;BME280;48017;51.064;7.014;2022-08-21T06:56:51;101026.31;;;20.14;65.98
62059;BME280;48017;51.064;7.014;2022-08-21T06:59:17;101022.88;;;19.60;66.35
62059;BME280;48017;51.064;7.014;2022-08-21T07:01:42;101029.19;;;21.09;60.68
62059;BME280;48017;51.064;7.014;2022-08-21T07:04:08;101017.56;;;19.74;64.05
62059;BME280;48017;51.064;7.014;2022-08-21T07:06:34;101013.94;;;19.82;64.88
62059;BME280;48017;51.064;7.014;2022-08-21T07:08:59;101022.59;;;20.97;60.38
62059;BME280;48017;51.064;7.014;2022-08-21T07:11:26;101016.13;;;19.87;63.85
62059;BME280;48017;51.064;7.014;2022-08-21T07:13:52;101021.88;;;20.44;61.51
62059;BME280;48017;51.064;7.014;2022-08-21T07:16:20;101020.22;;;21.38;58.03
62059;BME280;48017;51.064;7.014;2022-08-21T07:18:46;101016.63;;;22.73;53.92
62059;BME280;48017;51.064;7.014;2022-08-21T07:21:12;101020.16;;;23.08;53.06
62059;BME280;48017;51.064;7.014;2022-08-21T07:23:42;101022.75;;;22.88;53.81
62059;BME280;48017;51.064;7.014;2022-08-21T07:26:10;101023.34;;;21.56;56.49
62059;BME280;48017;51.064;7.014;2022-08-21T07:28:36;101021.22;;;22.44;55.38
62059;BME280;48017;51.064;7.014;2022-08-21T07:31:03;101022.22;;;21.51;56.24
62059;BME280;48017;51.064;7.014;2022-08-21T07:33:31;101022.94;;;22.52;53.62
62059;BME280;48017;51.064;7.014;2022-08-21T07:35:56;101026.69;;;22.01;54.38
62059;BME280;48017;51.064;7.014;2022-08-21T07:38:22;101025.16;;;21.71;55.03
62059;BME280;48017;51.064;7.014;2022-08-21T07:40:49;101019.56;;;24.13;49.08
62059;BME280;48017;51.064;7.014;2022-08-21T07:43:16;101016.78;;;23.60;49.65
62059;BME280;48017;51.064;7.014;2022-08-21T07:45:42;101023.50;;;23.91;49.06
62059;BME280;48017;51.064;7.014;2022-08-21T07:48:08;101009.97;;;22.75;51.51
62059;BME280;48017;51.064;7.014;2022-08-21T07:50:35;101011.44;;;24.06;48.78
62059;BME280;48017;51.064;7.014;2022-08-21T07:53:00;101014.75;;;23.62;49.36
62059;BME280;48017;51.064;7.014;2022-08-21T07:55:26;101009.13;;;24.63;46.86
62059;BME280;48017;51.064;7.014;2022-08-21T07:57:51;101018.91;;;23.65;48.45
62059;BME280;48017;51.064;7.014;2022-08-21T08:00:20;101014.38;;;24.11;47.13
62059;BME280;48017;51.064;7.014;2022-08-21T08:02:49;101022.25;;;24.73;45.72
62059;BME280;48017;51.064;7.014;2022-08-21T08:05:16;101009.00;;;22.83;50.49
62059;BME280;48017;51.064;7.014;2022-08-21T08:07:42;101007.53;;;23.21;49.09
62059;BME280;48017;51.064;7.014;2022-08-21T08:10:09;101016.41;;;23.09;49.69
62059;BME280;48017;51.064;7.014;2022-08-21T08:12:36;101013.75;;;24.16;46.99
62059;BME280;48017;51.064;7.014;2022-08-21T08:15:04;101014.59;;;23.22;48.95
62059;BME280;48017;51.064;7.014;2022-08-21T08:17:29;101011.84;;;23.77;48.08
62059;BME280;48017;51.064;7.014;2022-08-21T08:19:57;101012.25;;;23.74;47.94
62059;BME280;48017;51.064;7.014;2022-08-21T08:22:23;101010.63;;;23.18;49.14
62059;BME280;48017;51.064;7.014;2022-08-21T08:24:52;101005.19;;;23.99;47.29
62059;BME280;48017;51.064;7.014;2022-08-21T08:27:17;101003.75;;;23.09;48.60
62059;BME280;48017;51.064;7.014;2022-08-21T08:29:43;101008.66;;;22.92;49.49
62059;BME280;48017;51.064;7.014;2022-08-21T08:32:09;101000.06;;;23.37;49.39
62059;BME280;48017;51.064;7.014;2022-08-21T08:34:35;101007.28;;;23.97;47.31
62059;BME280;48017;51.064;7.014;2022-08-21T08:37:01;100999.06;;;24.83;45.26
62059;BME280;48017;51.064;7.014;2022-08-21T08:39:26;101002.28;;;24.07;45.78
62059;BME280;48017;51.064;7.014;2022-08-21T08:41:59;101002.81;;;23.43;47.39
62059;BME280;48017;51.064;7.014;2022-08-21T08:44:29;101003.00;;;23.42;47.75
62059;BME280;48017;51.064;7.014;2022-08-21T08:46:56;100996.88;;;22.72;49.18
62059;BME280;48017;51.064;7.014;2022-08-21T08:49:26;100987.69;;;22.66;49.64
62059;BME280;48017;51.064;7.014;2022-08-21T08:52:22;100992.88;;;24.10;47.10
62059;BME280;48017;51.064;7.014;2022-08-21T08:57:37;100991.03;;;23.71;47.90
62059;BME280;48017;51.064;7.014;2022-08-21T09:00:07;100986.84;;;24.48;46.12
62059;BME280;48017;51.064;7.014;2022-08-21T09:02:37;100995.31;;;24.78;45.49
62059;BME280;48017;51.064;7.014;2022-08-21T09:05:04;100987.66;;;24.28;44.79
62059;BME280;48017;51.064;7.014;2022-08-21T09:12:56;100974.59;;;23.05;48.21
62059;BME280;48017;51.064;7.014;2022-08-21T09:15:32;100975.94;;;23.48;47.67
62059;BME280;48017;51.064;7.014;2022-08-21T09:21:09;100961.88;;;23.86;47.43
62059;BME280;48017;51.064;7.014;2022-08-21T09:23:53;100971.03;;;24.11;46.39
62059;BME280;48017;51.064;7.014;2022-08-21T09:26:25;100968.09;;;24.53;44.71
62059;BME280;48017;51.064;7.014;2022-08-21T09:28:55;100968.78;;;24.86;43.86
62059;BME280;48017;51.064;7.014;2022-08-21T09:33:59;100958.50;;;24.44;44.59
62059;BME280;48017;51.064;7.014;2022-08-21T09:36:33;100967.25;;;24.46;44.65
62059;BME280;48017;51.064;7.014;2022-08-21T09:38:59;100965.41;;;23.93;44.86
62059;BME280;48017;51.064;7.014;2022-08-21T09:41:29;100963.06;;;24.50;44.44
62059;BME280;48017;51.064;7.014;2022-08-21T09:43:57;100964.34;;;24.40;44.42
62059;BME280;48017;51.064;7.014;2022-08-21T09:46:24;100962.88;;;25.09;43.03
62059;BME280;48017;51.064;7.014;2022-08-21T09:48:53;100959.94;;;25.11;42.34
62059;BME280;48017;51.064;7.014;2022-08-21T09:51:35;100960.22;;;23.92;44.44
62059;BME280;48017;51.064;7.014;2022-08-21T09:54:14;100961.28;;;24.82;43.38
62059;BME280;48017;51.064;7.014;2022-08-21T09:59:42;100936.94;;;23.03;45.79
62059;BME280;48017;51.064;7.014;2022-08-21T10:02:35;100947.50;;;23.72;44.82
62059;BME280;48017;51.064;7.014;2022-08-21T10:07:38;100942.47;;;24.42;43.10
62059;BME280;48017;51.064;7.014;2022-08-21T10:10:17;100934.72;;;24.52;42.30
62059;BME280;48017;51.064;7.014;2022-08-21T10:16:01;100937.63;;;25.40;41.19
62059;BME280;48017;51.064;7.014;2022-08-21T10:18:37;100932.19;;;25.09;41.10
62059;BME280;48017;51.064;7.014;2022-08-21T10:21:10;100930.75;;;25.44;41.01
62059;BME280;48017;51.064;7.014;2022-08-21T10:23:54;100926.16;;;25.95;40.50
62059;BME280;48017;51.064;7.014;2022-08-21T10:29:16;100921.59;;;24.29;42.03
62059;BME280;48017;51.064;7.014;2022-08-21T10:37:15;100920.19;;;25.30;40.63
62059;BME280;48017;51.064;7.014;2022-08-21T10:42:16;100913.84;;;25.67;41.42
62059;BME280;48017;51.064;7.014;2022-08-21T10:47:44;100918.84;;;25.07;40.73
62059;BME280;48017;51.064;7.014;2022-08-21T10:50:30;100914.88;;;25.10;40.86
62059;BME280;48017;51.064;7.014;2022-08-21T10:53:15;100910.50;;;25.40;40.05
62059;BME280;48017;51.064;7.014;2022-08-21T10:55:51;100910.09;;;25.93;39.15
62059;BME280;48017;51.064;7.014;2022-08-21T10:58:39;100907.34;;;26.18;38.82
62059;BME280;48017;51.064;7.014;2022-08-21T11:01:15;100909.69;;;26.33;38.28
62059;BME280;48017;51.064;7.014;2022-08-21T11:03:45;100910.25;;;25.73;38.77
62059;BME280;48017;51.064;7.014;2022-08-21T11:06:29;100907.56;;;26.17;37.82
62059;BME280;48017;51.064;7.014;2022-08-21T11:08:59;100908.31;;;26.24;38.65
62059;BME280;48017;51.064;7.014;2022-08-21T11:11:46;100905.28;;;25.70;39.73
62059;BME280;48017;51.064;7.014;2022-08-21T11:14:34;100913.91;;;26.10;40.95
62059;BME280;48017;51.064;7.014;2022-08-21T11:17:09;100899.91;;;26.50;39.09
62059;BME280;48017;51.064;7.014;2022-08-21T11:19:45;100901.97;;;27.03;38.18
62059;BME280;48017;51.064;7.014;2022-08-21T11:22:25;100900.28;;;26.54;38.29
62059;BME280;48017;51.064;7.014;2022-08-21T11:25:03;100903.03;;;26.84;38.32
62059;BME280;48017;51.064;7.014;2022-08-21T11:27:52;100899.31;;;27.26;37.14
62059;BME280;48017;51.064;7.014;2022-08-21T11:30:19;100899.53;;;26.03;38.78
62059;BME280;48017;51.064;7.014;2022-08-21T11:33:01;100897.78;;;25.66;40.77
62059;BME280;48017;51.064;7.014;2022-08-21T11:38:22;100889.47;;;26.95;38.26
62059;BME280;48017;51.064;7.014;2022-08-21T11:46:20;100892.53;;;27.17;36.75
62059;BME280;48017;51.064;7.014;2022-08-21T11:51:36;100885.91;;;26.95;37.29
62059;BME280;48017;51.064;7.014;2022-08-21T11:56:37;100894.91;;;27.67;36.88
62059;BME280;48017;51.064;7.014;2022-08-21T11:59:15;100885.56;;;27.21;36.97
62059;BME280;48017;51.064;7.014;2022-08-21T12:01:46;100886.56;;;27.39;36.73
62059;BME280;48017;51.064;7.014;2022-08-21T12:04:29;100885.72;;;27.80;36.51
62059;BME280;48017;51.064;7.014;2022-08-21T12:06:56;100886.06;;;27.83;34.77
62059;BME280;48017;51.064;7.014;2022-08-21T12:14:36;100874.47;;;27.35;35.67
62059;BME280;48017;51.064;7.014;2022-08-21T12:17:06;100880.09;;;27.51;34.48
62059;BME280;48017;51.064;7.014;2022-08-21T12:19:31;100884.63;;;27.93;34.55
62059;BME280;48017;51.064;7.014;2022-08-21T12:33:18;100870.75;;;27.94;35.29
62059;BME280;48017;51.064;7.014;2022-08-21T12:35:44;100862.75;;;28.51;34.56
62059;BME280;48017;51.064;7.014;2022-08-21T12:38:23;100871.34;;;28.31;33.98
62059;BME280;48017;51.064;7.014;2022-08-21T12:41:04;100866.34;;;26.20;36.19
62059;BME280;48017;51.064;7.014;2022-08-21T12:43:37;100865.09;;;25.79;37.58
62059;BME280;48017;51.064;7.014;2022-08-21T12:46:04;100874.22;;;26.28;36.44
62059;BME280;48017;51.064;7.014;2022-08-21T12:48:36;100871.06;;;27.39;34.77
62059;BME280;48017;51.064;7.014;2022-08-21T12:51:17;100866.81;;;27.43;35.47
62059;BME280;48017;51.064;7.014;2022-08-21T12:56:13;100863.06;;;27.68;34.53
62059;BME280;48017;51.064;7.014;2022-08-21T12:58:44;100865.75;;;28.26;34.29
62059;BME280;48017;51.064;7.014;2022-08-21T13:01:19;100870.13;;;28.51;33.45
62059;BME280;48017;51.064;7.014;2022-08-21T13:03:46;100870.13;;;28.39;33.37
62059;BME280;48017;51.064;7.014;2022-08-21T13:06:15;100863.03;;;28.38;32.80
62059;BME280;48017;51.064;7.014;2022-08-21T13:08:43;100850.06;;;27.70;32.98
62059;BME280;48017;51.064;7.014;2022-08-21T13:11:10;100858.69;;;28.02;33.31
62059;BME280;48017;51.064;7.014;2022-08-21T13:13:40;100859.75;;;27.66;32.53
62059;BME280;48017;51.064;7.014;2022-08-21T13:16:07;100864.50;;;27.70;33.12
62059;BME280;48017;51.064;7.014;2022-08-21T13:18:35;100856.53;;;28.16;32.06
62059;BME280;48017;51.064;7.014;2022-08-21T13:21:09;100861.41;;;28.02;32.54
62059;BME280;48017;51.064;7.014;2022-08-21T13:23:35;100848.09;;;27.59;32.46
62059;BME280;48017;51.064;7.014;2022-08-21T13:26:00;100856.41;;;27.99;32.21
62059;BME280;48017;51.064;7.014;2022-08-21T13:28:33;100856.19;;;27.89;32.62
62059;BME280;48017;51.064;7.014;2022-08-21T13:30:59;100851.47;;;27.72;33.23
62059;BME280;48017;51.064;7.014;2022-08-21T13:33:26;100848.06;;;28.52;32.10
62059;BME280;48017;51.064;7.014;2022-08-21T13:38:25;100853.63;;;28.46;33.17
62059;BME280;48017;51.064;7.014;2022-08-21T13:41:21;100844.97;;;28.49;32.63
62059;BME280;48017;51.064;7.014;2022-08-21T13:43:59;100844.78;;;28.67;32.05
62059;BME280;48017;51.064;7.014;2022-08-21T13:46:31;100842.50;;;28.76;32.33
62059;BME280;48017;51.064;7.014;2022-08-21T13:49:03;100837.84;;;28.48;32.84
62059;BME280;48017;51.064;7.014;2022-08-21T13:51:30;100839.31;;;28.67;31.75
62059;BME280;48017;51.064;7.014;2022-08-21T13:53:57;100843.00;;;28.09;32.86
62059;BME280;48017;51.064;7.014;2022-08-21T13:58:47;100846.88;;;28.48;32.22
62059;BME280;48017;51.064;7.014;2022-08-21T14:01:25;100839.78;;;28.76;32.15
62059;BME280;48017;51.064;7.014;2022-08-21T14:03:54;100843.47;;;28.29;32.41
62059;BME280;48017;51.064;7.014;2022-08-21T14:06:25;100836.78;;;28.77;31.80
62059;BME280;48017;51.064;7.014;2022-08-21T14:09:07;100828.19;;;28.97;30.77
62059;BME280;48017;51.064;7.014;2022-08-21T14:11:34;100837.72;;;28.83;32.18
62059;BME280;48017;51.064;7.014;2022-08-21T14:14:21;100826.38;;;28.74;31.75